Minto, Canada
Current Conditions -  °F | °C
As of 12:00 AM on Monday 22 Dec 2014 (Local Time) from CYBR Reporting Station
Haze Haze  
Wind Chill: 15°   Ceiling: 200
Heat Index: 25°   Visibility: 0.62mi
Dew Point: 25°   Wind: 10mph
Humidity: 100%   Direction: 70°ENE
Pressure: 29.52"   Gusts: NA
Location:  49.4°N, 100.02°W
Report Text: CYBR 220600Z 07009KT 5/8SM BR OVC002 M04/M04 A2952 RMK ST8 SLP020
Loading
Personal Weather Stations






























Interactive Weather Map New forecast layout! Learn more

10-Day Weather Forecast

Advertisements
Track Severe Weather on mobile